createdAt,value
2022-08-18T00:00:15.312Z,85.50
2022-08-18T00:01:16.642Z,85.70
2022-08-18T00:02:15.277Z,85.60
2022-08-18T00:03:53.095Z,85.50
2022-08-18T00:04:35.789Z,85.70
2022-08-18T00:05:16.083Z,85.70
2022-08-18T00:06:15.051Z,85.80
2022-08-18T00:07:15.063Z,85.80
2022-08-18T00:08:15.045Z,85.90
2022-08-18T00:09:15.050Z,85.94
2022-08-18T00:10:17.959Z,86.04
2022-08-18T00:11:15.031Z,86.15
2022-08-18T00:12:14.992Z,86.35
2022-08-18T00:13:15.001Z,86.35
2022-08-18T00:14:21.430Z,86.35
2022-08-18T00:15:15.975Z,86.45
2022-08-18T00:16:14.968Z,86.75
2022-08-18T00:17:14.952Z,86.75
2022-08-18T00:18:14.931Z,86.75
2022-08-18T00:19:14.934Z,86.45
2022-08-18T00:20:14.912Z,86.45
2022-08-18T00:21:14.911Z,85.54
2022-08-18T00:22:15.649Z,85.88
2022-08-18T00:23:14.897Z,85.78
2022-08-18T00:24:14.862Z,86.19
2022-08-18T00:25:14.863Z,86.19
2022-08-18T00:26:14.833Z,86.29
2022-08-18T00:27:14.852Z,86.59
2022-08-18T00:28:14.823Z,86.19
2022-08-18T00:29:14.822Z,86.39
2022-08-18T00:30:14.794Z,86.79
2022-08-18T00:31:14.815Z,87.34
2022-08-18T00:32:14.791Z,87.44
2022-08-18T00:33:14.790Z,87.34
2022-08-18T00:34:14.763Z,87.24
2022-08-18T00:35:14.753Z,87.44
2022-08-18T00:36:14.723Z,87.64
2022-08-18T00:37:14.732Z,87.64
2022-08-18T00:38:24.800Z,87.74
2022-08-18T00:39:15.708Z,88.25
2022-08-18T00:40:14.816Z,88.35
2022-08-18T00:41:14.684Z,88.39
2022-08-18T00:42:27.609Z,88.49
2022-08-18T00:43:15.663Z,88.70
2022-08-18T00:44:14.644Z,89.10
2022-08-18T00:45:14.655Z,89.40
2022-08-18T00:46:14.624Z,89.50
2022-08-18T00:47:14.614Z,89.50
2022-08-18T00:48:15.586Z,89.50
2022-08-18T00:49:14.585Z,89.00
2022-08-18T00:50:15.508Z,88.79
2022-08-18T00:51:14.599Z,88.59
2022-08-18T00:52:14.563Z,88.59
2022-08-18T00:53:14.534Z,88.70
2022-08-18T00:54:14.548Z,89.40
2022-08-18T00:55:14.514Z,89.65
2022-08-18T00:56:14.515Z,89.34
2022-08-18T00:57:14.585Z,89.24
2022-08-18T00:58:14.492Z,89.24
2022-08-18T00:59:14.464Z,88.94
2022-08-18T01:00:14.462Z,88.94
2022-08-18T01:01:14.457Z,88.84
2022-08-18T01:02:14.443Z,89.04
2022-08-18T01:03:14.419Z,88.94
2022-08-18T01:04:14.431Z,88.74
2022-08-18T01:05:14.392Z,88.64
2022-08-18T01:06:14.477Z,88.64
2022-08-18T01:07:14.366Z,88.64
2022-08-18T01:08:14.413Z,88.33
2022-08-18T01:09:14.356Z,88.33
2022-08-18T01:10:14.366Z,88.74
2022-08-18T01:11:14.326Z,88.84
2022-08-18T01:12:44.165Z,88.94
2022-08-18T01:13:15.307Z,88.98
2022-08-18T01:14:14.313Z,88.78
2022-08-18T01:15:28.205Z,88.68
2022-08-18T01:16:15.287Z,88.78
2022-08-18T01:17:14.254Z,88.88
2022-08-18T01:18:14.254Z,88.98
2022-08-18T01:19:14.235Z,88.98
2022-08-18T01:20:14.227Z,89.18
2022-08-18T01:21:14.229Z,89.08
2022-08-18T01:22:14.233Z,89.08
2022-08-18T01:23:14.297Z,89.18
2022-08-18T01:24:17.421Z,89.32
2022-08-18T01:25:15.165Z,89.63
2022-08-18T01:26:14.174Z,89.83
2022-08-18T01:27:14.154Z,89.94
2022-08-18T01:28:14.165Z,90.24
2022-08-18T01:29:18.778Z,90.34
2022-08-18T01:30:15.125Z,90.54
2022-08-18T01:31:14.095Z,90.64
2022-08-18T01:32:14.095Z,90.75
2022-08-18T01:33:14.858Z,90.44
2022-08-18T01:34:14.882Z,89.94
2022-08-18T01:35:14.065Z,89.43
2022-08-18T01:36:14.059Z,89.43
2022-08-18T01:37:14.024Z,89.53
2022-08-18T01:38:14.037Z,89.73
2022-08-18T01:39:14.515Z,90.14
2022-08-18T01:41:23.717Z,90.54
2022-08-18T01:41:28.764Z,90.44
2022-08-18T01:42:15.052Z,90.24
2022-08-18T01:43:14.135Z,90.14
2022-08-18T01:44:13.966Z,90.03
2022-08-18T01:45:13.955Z,89.94
2022-08-18T01:46:13.954Z,89.87
2022-08-18T01:47:13.915Z,89.98
2022-08-18T01:48:13.969Z,90.28
2022-08-18T01:49:13.896Z,90.28
2022-08-18T01:50:14.774Z,90.08
2022-08-18T01:51:13.875Z,90.18
2022-08-18T01:52:13.890Z,90.28
2022-08-18T01:53:14.737Z,90.18
2022-08-18T01:54:14.004Z,90.08
2022-08-18T01:55:14.553Z,90.08
2022-08-18T01:56:13.841Z,89.98
2022-08-18T01:57:13.806Z,89.98
2022-08-18T01:58:13.805Z,90.28
2022-08-18T01:59:13.786Z,90.58
2022-08-18T02:00:13.785Z,90.79
2022-08-18T02:01:13.792Z,90.79
2022-08-18T02:02:18.418Z,91.19
2022-08-18T02:03:13.746Z,91.39
2022-08-18T02:04:33.795Z,91.30
2022-08-18T02:05:14.715Z,91.09
2022-08-18T02:06:14.682Z,90.79
2022-08-18T02:07:14.406Z,90.69
2022-08-18T02:08:13.706Z,90.32
2022-08-18T02:09:13.665Z,90.22
2022-08-18T02:10:16.450Z,90.12
2022-08-18T02:11:13.635Z,90.02
2022-08-18T02:12:14.034Z,90.22
2022-08-18T02:13:13.621Z,90.22
2022-08-18T02:14:14.507Z,90.12
2022-08-18T02:15:13.599Z,90.22
2022-08-18T02:16:14.155Z,90.12
2022-08-18T02:17:14.477Z,90.12
2022-08-18T02:18:14.277Z,90.22
2022-08-18T02:19:14.538Z,90.32
2022-08-18T02:20:13.544Z,90.42
2022-08-18T02:21:14.238Z,90.42
2022-08-18T02:22:15.278Z,90.42
2022-08-18T02:23:14.407Z,90.62
2022-08-18T02:24:13.617Z,90.73
2022-08-18T02:25:13.600Z,90.93
2022-08-18T02:26:13.488Z,91.03
2022-08-18T02:27:14.154Z,91.13
2022-08-18T02:28:13.529Z,91.03
2022-08-18T02:29:13.620Z,91.08
2022-08-18T02:30:13.431Z,91.13
2022-08-18T02:31:13.409Z,91.08
2022-08-18T02:32:13.408Z,91.28
2022-08-18T02:33:13.440Z,91.17
2022-08-18T02:34:14.127Z,91.38
2022-08-18T02:35:13.456Z,91.89
2022-08-18T02:36:13.357Z,91.48
2022-08-18T02:37:15.636Z,91.17
2022-08-18T02:38:13.996Z,91.48
2022-08-18T02:39:14.001Z,91.89
2022-08-18T02:40:13.309Z,92.19
2022-08-18T02:41:13.299Z,92.29
2022-08-18T02:42:13.290Z,92.19
2022-08-18T02:43:14.028Z,91.99
2022-08-18T02:44:13.258Z,91.99
2022-08-18T02:45:13.959Z,92.19
2022-08-18T02:46:13.246Z,92.29
2022-08-18T02:47:13.215Z,92.29
2022-08-18T02:48:13.207Z,92.19
2022-08-18T02:49:13.198Z,91.99
2022-08-18T02:50:13.195Z,92.19
2022-08-18T02:51:13.896Z,92.09
2022-08-18T02:52:13.191Z,91.99
2022-08-18T02:53:13.136Z,91.93
2022-08-18T02:54:13.151Z,91.93
2022-08-18T02:55:13.127Z,92.03
2022-08-18T02:56:13.157Z,92.13
2022-08-18T02:57:13.101Z,92.24
2022-08-18T02:58:13.100Z,92.13
2022-08-18T02:59:13.134Z,92.24
2022-08-18T03:00:13.116Z,92.13
2022-08-18T03:01:13.099Z,92.03
2022-08-18T03:02:13.999Z,91.93
2022-08-18T03:03:13.034Z,91.93
2022-08-18T03:04:13.027Z,92.03
2022-08-18T03:05:14.689Z,92.24
2022-08-18T03:06:13.008Z,92.33
2022-08-18T03:07:13.767Z,92.44
2022-08-18T03:08:13.067Z,92.44
2022-08-18T03:09:12.947Z,92.54
2022-08-18T03:10:31.717Z,92.64
2022-08-18T03:11:13.921Z,92.54
2022-08-18T03:12:12.962Z,92.54
2022-08-18T03:13:12.919Z,92.58
2022-08-18T03:14:13.611Z,92.58
2022-08-18T03:15:13.635Z,92.58
2022-08-18T03:16:13.677Z,92.48
2022-08-18T03:17:12.847Z,92.48
2022-08-18T03:18:13.738Z,92.48
2022-08-18T03:19:12.842Z,92.48
2022-08-18T03:20:12.826Z,92.38
2022-08-18T03:21:12.807Z,92.28
2022-08-18T03:22:27.451Z,92.18
2022-08-18T03:25:24.964Z,91.87
2022-08-18T03:26:24.924Z,91.97
2022-08-18T03:27:24.934Z,91.97
2022-08-18T03:28:24.903Z,92.07
2022-08-18T03:29:30.967Z,92.07
2022-08-18T03:30:25.914Z,92.07
2022-08-18T03:31:24.873Z,92.18
2022-08-18T03:32:24.853Z,92.18
2022-08-18T03:33:24.853Z,92.18
2022-08-18T03:34:24.816Z,92.18
2022-08-18T03:35:24.824Z,91.97
2022-08-18T03:36:24.824Z,91.87
2022-08-18T03:37:24.934Z,91.77
2022-08-18T03:38:24.766Z,91.77
2022-08-18T03:39:24.786Z,91.87
2022-08-18T03:40:25.564Z,91.87
2022-08-18T03:41:43.605Z,91.97
2022-08-18T03:42:26.538Z,92.07
2022-08-18T03:43:50.836Z,92.18
2022-08-18T03:44:25.757Z,92.22
2022-08-18T03:45:24.708Z,92.22
2022-08-18T03:46:25.503Z,92.42
2022-08-18T03:47:25.418Z,92.72
2022-08-18T03:48:25.456Z,92.83
2022-08-18T03:49:24.920Z,92.72
2022-08-18T03:50:25.541Z,92.63
2022-08-18T03:51:25.414Z,92.42
2022-08-18T03:52:24.646Z,92.32
2022-08-18T03:53:25.491Z,92.32
2022-08-18T03:54:24.634Z,92.22
2022-08-18T03:55:24.593Z,92.22
2022-08-18T03:56:24.567Z,92.22
2022-08-18T03:57:24.864Z,92.12
2022-08-18T03:58:25.383Z,92.22
2022-08-18T03:59:25.425Z,92.42
2022-08-18T04:00:25.328Z,92.42
2022-08-18T04:01:27.286Z,92.63
2022-08-18T04:02:24.514Z,92.63
2022-08-18T04:03:24.805Z,92.52
2022-08-18T04:04:25.437Z,92.52
2022-08-18T04:05:24.618Z,92.52
2022-08-18T04:06:30.229Z,92.63
2022-08-18T04:07:26.325Z,92.52
2022-08-18T04:08:25.196Z,92.52
2022-08-18T04:09:24.448Z,92.32
2022-08-18T04:10:24.415Z,92.36
2022-08-18T04:11:24.434Z,92.36
2022-08-18T04:12:24.396Z,92.36
2022-08-18T04:13:24.975Z,92.36
2022-08-18T04:14:24.383Z,92.57
2022-08-18T04:15:24.783Z,92.67
2022-08-18T04:16:24.434Z,92.87
2022-08-18T04:17:25.126Z,92.87
2022-08-18T04:18:25.135Z,92.26
2022-08-18T04:19:26.681Z,92.47
2022-08-18T04:20:24.325Z,92.67
2022-08-18T04:21:25.096Z,92.97
2022-08-18T04:22:24.315Z,92.97
2022-08-18T04:23:24.296Z,92.87
2022-08-18T04:24:24.274Z,92.57
2022-08-18T04:25:24.268Z,92.36
2022-08-18T04:26:24.246Z,92.06
2022-08-18T04:27:24.255Z,92.06
2022-08-18T04:28:24.245Z,92.06
2022-08-18T04:29:24.225Z,92.36
2022-08-18T04:30:25.005Z,92.47
2022-08-18T04:31:24.214Z,92.47
2022-08-18T04:32:24.275Z,92.16
2022-08-18T04:33:25.164Z,92.16
2022-08-18T04:34:24.140Z,92.26
2022-08-18T04:35:24.895Z,92.16
2022-08-18T04:36:24.118Z,92.06
2022-08-18T04:37:24.115Z,92.06
2022-08-18T04:38:25.006Z,92.16
2022-08-18T04:39:24.100Z,92.16
2022-08-18T04:40:25.418Z,92.16
2022-08-18T04:41:24.838Z,92.16
2022-08-18T04:42:24.105Z,92.26
2022-08-18T04:43:24.799Z,92.26
2022-08-18T04:44:24.034Z,92.26
2022-08-18T04:45:24.035Z,92.47
2022-08-18T04:46:24.534Z,92.67
2022-08-18T04:47:24.014Z,92.67
2022-08-18T04:48:23.995Z,92.47
2022-08-18T04:49:23.985Z,92.06
2022-08-18T04:50:24.874Z,91.75
2022-08-18T04:52:26.686Z,92.16
2022-08-18T04:52:40.737Z,92.47
2022-08-18T04:53:24.938Z,92.87
2022-08-18T04:54:24.125Z,93.18
2022-08-18T04:55:23.925Z,93.18
2022-08-18T04:56:24.135Z,93.28
2022-08-18T04:57:24.576Z,93.28
2022-08-18T04:58:23.877Z,93.38
2022-08-18T04:59:23.889Z,93.28
2022-08-18T05:00:23.965Z,92.57
2022-08-18T05:01:24.612Z,92.06
2022-08-18T05:02:24.611Z,92.06
2022-08-18T05:03:24.518Z,92.26
2022-08-18T05:04:23.818Z,92.47
2022-08-18T05:05:23.806Z,92.77
2022-08-18T05:06:24.617Z,92.87
2022-08-18T05:07:24.527Z,92.83
2022-08-18T05:08:24.545Z,92.83
2022-08-18T05:09:24.450Z,92.83
2022-08-18T05:10:23.745Z,92.52
2022-08-18T05:11:23.745Z,92.32
2022-08-18T05:12:25.933Z,92.42
2022-08-18T05:13:23.745Z,92.42
2022-08-18T05:14:23.725Z,92.42
2022-08-18T05:15:23.703Z,92.32
2022-08-18T05:16:27.212Z,92.32
2022-08-18T05:17:23.676Z,92.32
2022-08-18T05:18:23.693Z,92.42
2022-08-18T05:19:26.674Z,92.42
2022-08-18T05:20:24.095Z,92.42
2022-08-18T05:21:24.636Z,92.42
2022-08-18T05:22:30.369Z,92.42
2022-08-18T05:23:24.625Z,92.42
2022-08-18T05:24:24.115Z,92.42
2022-08-18T05:25:24.338Z,92.32
2022-08-18T05:26:24.496Z,92.42
2022-08-18T05:27:23.565Z,92.52
2022-08-18T05:28:23.546Z,92.52
2022-08-18T05:29:23.545Z,92.72
2022-08-18T05:30:23.677Z,92.83
2022-08-18T05:31:23.543Z,92.72
2022-08-18T05:32:40.866Z,92.58
2022-08-18T05:33:24.506Z,92.48
2022-08-18T05:34:23.975Z,92.38
2022-08-18T05:35:23.899Z,92.38
2022-08-18T05:36:23.996Z,92.38
2022-08-18T05:37:23.458Z,92.28
2022-08-18T05:38:23.438Z,92.13
2022-08-18T05:39:23.442Z,92.03
2022-08-18T05:40:23.456Z,91.83
2022-08-18T05:41:24.193Z,91.63
2022-08-18T05:42:23.643Z,91.28
2022-08-18T05:43:23.513Z,91.08
2022-08-18T05:44:23.356Z,90.77
2022-08-18T05:45:23.388Z,90.57
2022-08-18T05:46:23.356Z,90.12
2022-08-18T05:47:23.356Z,90.02
2022-08-18T05:48:23.329Z,89.72
2022-08-18T05:49:23.355Z,89.61
2022-08-18T05:50:23.296Z,89.17
2022-08-18T05:51:23.295Z,88.96
2022-08-18T05:52:24.046Z,88.46
2022-08-18T05:53:23.278Z,88.15
2022-08-18T05:54:23.285Z,87.60
2022-08-18T05:55:23.246Z,87.51
2022-08-18T05:56:23.224Z,87.20
2022-08-18T05:57:23.425Z,87.10
2022-08-18T05:58:23.225Z,86.79
2022-08-18T05:59:23.236Z,86.49
2022-08-18T06:00:23.176Z,86.59
2022-08-18T06:01:23.186Z,86.69
2022-08-18T06:02:23.173Z,86.39
2022-08-18T06:03:23.946Z,85.44
2022-08-18T06:04:23.216Z,86.15
2022-08-18T06:05:23.128Z,86.45
2022-08-18T06:06:23.127Z,86.35
2022-08-18T06:07:23.186Z,86.15
2022-08-18T06:08:23.155Z,85.90
2022-08-18T06:09:23.187Z,85.70
2022-08-18T06:10:23.066Z,85.39
2022-08-18T06:11:23.150Z,85.19
2022-08-18T06:12:23.076Z,85.19
2022-08-18T06:13:23.181Z,85.05
2022-08-18T06:14:23.361Z,85.05
2022-08-18T06:15:24.036Z,84.75
2022-08-18T06:16:22.996Z,84.65
2022-08-18T06:17:23.007Z,84.25
2022-08-18T06:18:22.978Z,84.25
2022-08-18T06:19:22.976Z,84.34
2022-08-18T06:20:22.959Z,84.25
2022-08-18T06:21:23.176Z,84.11
2022-08-18T06:22:22.934Z,83.90
2022-08-18T06:23:22.998Z,84.11
2022-08-18T06:24:22.998Z,84.11
2022-08-18T06:25:22.978Z,83.90
2022-08-18T06:26:22.889Z,83.70
2022-08-18T06:27:22.926Z,83.80
2022-08-18T06:28:22.867Z,83.60
2022-08-18T06:29:22.866Z,83.80
2022-08-18T06:30:22.847Z,83.80
2022-08-18T06:31:29.216Z,83.80
2022-08-18T06:32:23.825Z,82.79
2022-08-18T06:33:22.816Z,82.14
2022-08-18T06:34:22.812Z,82.85
2022-08-18T06:35:22.799Z,83.15
2022-08-18T06:36:23.520Z,83.26
2022-08-18T06:37:22.797Z,82.85
2022-08-18T06:38:22.765Z,82.85
2022-08-18T06:39:22.747Z,83.05
2022-08-18T06:40:22.871Z,83.05
2022-08-18T06:41:40.746Z,82.91
2022-08-18T06:42:23.783Z,82.71
2022-08-18T06:43:22.707Z,82.51
2022-08-18T06:44:22.688Z,82.51
2022-08-18T06:45:22.697Z,82.61
2022-08-18T06:46:23.658Z,82.61
2022-08-18T06:47:22.667Z,82.51
2022-08-18T06:48:22.638Z,82.41
2022-08-18T06:49:22.649Z,82.21
2022-08-18T06:50:22.620Z,82.10
2022-08-18T06:51:22.618Z,82.10
2022-08-18T06:52:22.598Z,82.41
2022-08-18T06:53:27.156Z,82.57
2022-08-18T06:54:24.497Z,82.37
2022-08-18T06:55:22.568Z,81.67
2022-08-18T06:56:26.678Z,81.96
2022-08-18T06:57:22.549Z,82.07
2022-08-18T06:58:22.528Z,81.96
2022-08-18T06:59:22.530Z,82.07
2022-08-18T07:00:22.520Z,82.37
2022-08-18T07:01:22.537Z,82.67
2022-08-18T07:02:22.498Z,82.43
2022-08-18T07:03:22.497Z,82.13
2022-08-18T07:04:22.858Z,82.03
2022-08-18T07:05:22.440Z,81.93
2022-08-18T07:06:22.451Z,81.82
2022-08-18T07:07:22.459Z,81.42
2022-08-18T07:08:22.428Z,80.98
2022-08-18T07:09:22.412Z,80.78
2022-08-18T07:10:22.398Z,80.18
2022-08-18T07:11:22.381Z,80.38
2022-08-18T07:12:22.399Z,80.58
2022-08-18T07:13:22.369Z,80.54
2022-08-18T07:14:22.382Z,80.13
2022-08-18T07:15:22.348Z,80.33
2022-08-18T07:16:40.354Z,79.03
2022-08-18T07:17:23.318Z,79.53
2022-08-18T07:18:23.314Z,80.10
2022-08-18T07:19:22.291Z,80.40
2022-08-18T07:20:22.291Z,80.50
2022-08-18T07:21:22.260Z,80.30
2022-08-18T07:22:22.268Z,80.00
2022-08-18T07:23:23.288Z,79.66
2022-08-18T07:24:25.378Z,77.95
2022-08-18T07:25:22.379Z,78.45
2022-08-18T07:26:22.226Z,79.05
2022-08-18T07:27:22.189Z,77.04
2022-08-18T07:28:22.199Z,78.35
2022-08-18T07:29:22.171Z,78.65
2022-08-18T07:30:22.179Z,77.31
2022-08-18T07:31:22.149Z,78.61
2022-08-18T07:32:22.156Z,78.81
2022-08-18T07:33:22.129Z,78.51
2022-08-18T07:34:22.127Z,78.51
2022-08-18T07:35:22.100Z,78.91
2022-08-18T07:36:22.110Z,79.02
2022-08-18T07:37:27.922Z,79.52
2022-08-18T07:39:23.102Z,80.43
2022-08-18T07:40:22.062Z,77.00
2022-08-18T07:41:22.042Z,77.40
2022-08-18T07:42:37.345Z,77.20
2022-08-18T07:43:23.969Z,80.39
2022-08-18T07:44:22.010Z,76.76
2022-08-18T07:45:23.953Z,72.74
2022-08-18T07:46:21.991Z,78.34
2022-08-18T07:47:21.971Z,78.94
2022-08-18T07:48:39.683Z,69.06
2022-08-18T07:49:22.943Z,78.60
2022-08-18T07:50:42.135Z,69.72
2022-08-18T07:51:22.914Z,70.23
2022-08-18T07:52:36.263Z,74.24
2022-08-18T07:53:22.973Z,68.21
2022-08-18T07:54:47.718Z,70.50
2022-08-18T07:55:22.871Z,70.89
2022-08-18T07:56:21.879Z,68.18
2022-08-18T07:57:21.850Z,67.68
2022-08-18T07:58:21.851Z,67.14
2022-08-18T07:59:21.848Z,68.85
2022-08-18T08:00:40.947Z,69.96
2022-08-18T08:01:22.842Z,71.06
2022-08-18T08:02:21.810Z,69.96
2022-08-18T08:03:21.782Z,74.77
2022-08-18T08:04:25.688Z,73.97
2022-08-18T08:05:21.760Z,74.27
2022-08-18T08:06:21.766Z,72.67
2022-08-18T08:07:25.501Z,77.09
2022-08-18T08:08:25.105Z,71.47
2022-08-18T08:09:21.717Z,70.26
2022-08-18T08:10:21.821Z,74.37
2022-08-18T08:11:21.692Z,74.07
2022-08-18T08:12:21.696Z,76.98
2022-08-18T08:13:43.702Z,74.98
2022-08-18T08:14:26.320Z,75.82
2022-08-18T08:15:27.100Z,77.42
2022-08-18T08:16:22.650Z,77.32
2022-08-18T08:17:21.651Z,76.21
2022-08-18T08:18:21.631Z,77.26
2022-08-18T08:19:36.516Z,77.76
2022-08-18T08:20:22.602Z,75.75
2022-08-18T08:21:21.588Z,76.15
2022-08-18T08:22:21.582Z,76.76
2022-08-18T08:23:21.552Z,76.35
2022-08-18T08:24:21.568Z,72.94
2022-08-18T08:25:45.323Z,76.02
2022-08-18T08:26:22.583Z,74.21
2022-08-18T08:27:21.513Z,75.62
2022-08-18T08:28:21.512Z,75.11
2022-08-18T08:29:21.495Z,74.11
2022-08-18T08:30:21.546Z,75.98
2022-08-18T08:31:38.005Z,75.78
2022-08-18T08:32:22.517Z,72.47
2022-08-18T08:33:21.534Z,74.37
2022-08-18T08:34:21.452Z,71.43
2022-08-18T08:35:49.687Z,71.43
2022-08-18T08:36:22.432Z,75.04
2022-08-18T08:37:21.414Z,70.83
2022-08-18T08:38:42.966Z,74.04
2022-08-18T08:39:22.376Z,75.24
2022-08-18T08:40:21.485Z,75.74
2022-08-18T08:41:21.370Z,75.95
2022-08-18T08:42:32.126Z,75.74
2022-08-18T08:43:22.424Z,75.45
2022-08-18T08:44:21.342Z,75.04
2022-08-18T08:45:21.404Z,74.54
2022-08-18T08:46:21.323Z,72.83
2022-08-18T08:47:22.938Z,73.44
2022-08-18T08:48:21.304Z,74.04
2022-08-18T08:49:21.264Z,69.62
2022-08-18T08:50:21.264Z,68.22
2022-08-18T08:51:21.244Z,68.92
2022-08-18T08:52:21.244Z,72.50
2022-08-18T08:53:21.237Z,72.40
2022-08-18T08:54:21.233Z,73.80
2022-08-18T08:55:21.196Z,74.40
2022-08-18T08:56:21.195Z,72.90
2022-08-18T08:57:21.173Z,74.20
2022-08-18T08:58:21.183Z,68.72
2022-08-18T08:59:21.154Z,71.00
2022-08-18T09:00:21.154Z,70.79
2022-08-18T09:01:21.168Z,68.39
2022-08-18T09:02:44.774Z,71.09
2022-08-18T09:03:29.996Z,72.86
2022-08-18T09:04:22.106Z,72.77
2022-08-18T09:05:21.084Z,73.30
2022-08-18T09:06:21.105Z,73.10
2022-08-18T09:07:21.825Z,73.70
2022-08-18T09:08:21.066Z,73.50
2022-08-18T09:09:21.192Z,73.00
2022-08-18T09:10:21.208Z,71.20
2022-08-18T09:11:21.018Z,70.69
2022-08-18T09:12:21.176Z,69.89
2022-08-18T09:13:23.321Z,70.29
2022-08-18T09:14:21.999Z,73.20
2022-08-18T09:15:21.006Z,70.69
2022-08-18T09:16:21.011Z,72.50
2022-08-18T09:17:20.946Z,73.20
2022-08-18T09:18:20.957Z,73.70
2022-08-18T09:19:20.926Z,73.94
2022-08-18T09:20:20.938Z,73.13
2022-08-18T09:21:21.647Z,73.20
2022-08-18T09:22:20.906Z,72.80
2022-08-18T09:23:20.877Z,68.59
2022-08-18T09:24:20.887Z,67.79
2022-08-18T09:25:20.857Z,67.15
2022-08-18T09:26:21.678Z,71.46
2022-08-18T09:27:20.949Z,69.82
2022-08-18T09:28:20.848Z,69.53
2022-08-18T09:29:20.811Z,70.53
2022-08-18T09:30:20.818Z,70.93
2022-08-18T09:31:20.786Z,70.73
2022-08-18T09:32:23.042Z,68.46
2022-08-18T09:33:20.779Z,70.83
2022-08-18T09:34:20.768Z,69.46
2022-08-18T09:36:21.749Z,69.26
2022-08-18T09:38:21.718Z,73.00
2022-08-18T09:39:23.242Z,72.90
2022-08-18T09:40:33.370Z,73.20
2022-08-18T09:41:21.729Z,73.20
2022-08-18T09:42:20.679Z,72.70
2022-08-18T09:43:21.668Z,72.00
2022-08-18T09:44:26.637Z,71.80
2022-08-18T09:45:21.619Z,70.79
2022-08-18T09:46:20.629Z,71.20
2022-08-18T09:47:20.609Z,72.00
2022-08-18T09:48:25.335Z,71.90
2022-08-18T09:49:21.710Z,72.60
2022-08-18T09:51:23.265Z,72.70
2022-08-18T09:52:20.569Z,71.56
2022-08-18T09:53:20.541Z,72.36
2022-08-18T09:54:21.314Z,71.46
2022-08-18T09:55:20.521Z,71.86
2022-08-18T09:56:28.670Z,70.23
2022-08-18T09:57:21.507Z,68.32
2022-08-18T09:59:22.212Z,70.09
2022-08-18T10:00:24.431Z,69.16
2022-08-18T10:01:21.504Z,69.82
2022-08-18T10:02:28.107Z,68.69
2022-08-18T10:03:25.943Z,68.89
2022-08-18T10:05:22.512Z,64.43
2022-08-18T10:06:20.704Z,65.20
2022-08-18T10:07:20.386Z,65.10
2022-08-18T10:08:24.003Z,64.87
2022-08-18T10:09:36.267Z,61.15
2022-08-18T10:11:22.063Z,62.68
2022-08-18T10:12:20.360Z,60.86
2022-08-18T10:13:21.560Z,60.53
2022-08-18T10:14:21.163Z,60.40
2022-08-18T10:16:21.320Z,59.85
2022-08-18T10:17:23.525Z,59.52
2022-08-18T10:18:20.292Z,58.13
2022-08-18T10:19:23.183Z,58.03
2022-08-18T10:20:26.034Z,58.62
2022-08-18T10:21:24.421Z,58.92
2022-08-18T10:22:20.224Z,58.56
2022-08-18T10:23:21.196Z,58.75
2022-08-18T10:24:36.971Z,59.15
2022-08-18T10:25:23.053Z,59.35
2022-08-18T10:26:21.037Z,59.25
2022-08-18T10:27:20.172Z,59.08
2022-08-18T10:28:20.183Z,59.08
2022-08-18T10:29:20.145Z,59.48
2022-08-18T10:30:20.132Z,59.58
2022-08-18T10:31:24.124Z,59.78
2022-08-18T10:32:21.996Z,59.58
2022-08-18T10:33:20.093Z,59.81
2022-08-18T10:34:20.093Z,59.91
2022-08-18T10:35:20.591Z,60.43
2022-08-18T10:36:20.061Z,60.83
2022-08-18T10:37:20.090Z,60.33
2022-08-18T10:38:21.080Z,60.33
2022-08-18T10:39:20.023Z,60.53
2022-08-18T10:41:21.001Z,60.50
2022-08-18T10:42:20.007Z,60.30
2022-08-18T10:43:41.459Z,59.81
2022-08-18T10:44:29.236Z,60.21
2022-08-18T10:45:23.799Z,59.91
2022-08-18T10:46:30.601Z,59.91
2022-08-18T10:47:20.925Z,59.98
2022-08-18T10:48:20.714Z,59.68
2022-08-18T10:49:19.916Z,59.68
2022-08-18T10:50:19.926Z,59.58
2022-08-18T10:52:21.174Z,59.08
2022-08-18T10:54:20.880Z,58.65
2022-08-18T10:55:19.857Z,58.26
2022-08-18T10:56:22.557Z,58.36
2022-08-18T10:57:21.177Z,57.83
2022-08-18T10:58:19.826Z,57.64
2022-08-18T10:59:20.026Z,57.73
2022-08-18T11:00:20.809Z,57.43
2022-08-18T11:01:19.785Z,57.14
2022-08-18T11:02:19.793Z,57.31
2022-08-18T11:03:50.578Z,57.01
2022-08-18T11:04:32.828Z,57.11
2022-08-18T11:05:20.994Z,56.88
2022-08-18T11:06:21.579Z,56.29
2022-08-18T11:07:20.091Z,56.68
2022-08-18T11:08:20.591Z,56.38
2022-08-18T11:09:20.499Z,56.29
2022-08-18T11:10:57.676Z,56.38
2022-08-18T11:11:36.280Z,55.99
2022-08-18T11:12:20.679Z,56.16
2022-08-18T11:13:20.127Z,55.96
2022-08-18T11:14:20.138Z,56.06
2022-08-18T11:15:22.421Z,56.06
2022-08-18T11:16:20.331Z,56.26
2022-08-18T11:17:19.609Z,55.76
2022-08-18T11:18:19.590Z,55.76
2022-08-18T11:19:19.597Z,55.76
2022-08-18T11:20:19.574Z,55.74
2022-08-18T11:21:20.369Z,55.83
2022-08-18T11:23:21.490Z,55.24
2022-08-18T11:24:19.583Z,55.34
2022-08-18T11:25:19.599Z,55.02
2022-08-18T11:26:19.622Z,54.82
2022-08-18T11:27:20.162Z,54.39
2022-08-18T11:28:19.619Z,53.88
2022-08-18T11:29:19.468Z,53.78
2022-08-18T11:30:19.479Z,53.28
2022-08-18T11:31:19.462Z,52.26
2022-08-18T11:32:20.212Z,52.36
2022-08-18T11:33:23.067Z,52.26
2022-08-18T11:34:19.943Z,51.97
2022-08-18T11:35:19.398Z,52.17
2022-08-18T11:36:19.400Z,52.98
2022-08-18T11:37:19.379Z,53.28
2022-08-18T11:38:20.964Z,53.48
2022-08-18T11:39:22.364Z,53.67
2022-08-18T11:41:20.408Z,54.10
2022-08-18T11:42:21.967Z,53.78
2022-08-18T11:43:21.379Z,53.90
2022-08-18T11:44:20.063Z,53.67
2022-08-18T11:45:19.782Z,53.60
2022-08-18T11:47:20.281Z,53.88
2022-08-18T11:48:25.075Z,53.48
2022-08-18T11:49:26.183Z,53.28
2022-08-18T11:50:21.021Z,53.18
2022-08-18T11:51:23.527Z,53.38
2022-08-18T11:52:19.581Z,53.06
2022-08-18T11:53:20.242Z,52.96
2022-08-18T11:54:19.873Z,53.06
2022-08-18T11:55:24.177Z,52.76
2022-08-18T11:56:20.963Z,52.66
2022-08-18T11:57:21.005Z,52.36
2022-08-18T11:58:19.889Z,52.24
2022-08-18T11:59:20.042Z,51.94
2022-08-18T12:00:22.825Z,52.14
2022-08-18T12:01:20.134Z,51.94
2022-08-18T12:02:19.125Z,51.72
2022-08-18T12:03:19.252Z,51.52
2022-08-18T12:04:19.063Z,51.42
2022-08-18T12:05:19.084Z,51.84
2022-08-18T12:06:20.025Z,51.54
2022-08-18T12:08:50.590Z,51.65
2022-08-18T12:10:25.760Z,51.65
2022-08-18T12:11:26.836Z,51.54
2022-08-18T12:12:20.223Z,51.75
2022-08-18T12:13:19.210Z,51.94
2022-08-18T12:14:32.184Z,51.84
2022-08-18T12:15:24.676Z,52.04
2022-08-18T12:16:18.936Z,52.14
2022-08-18T12:17:18.945Z,52.24
2022-08-18T12:18:28.459Z,51.94
2022-08-18T12:20:19.885Z,51.84
2022-08-18T12:21:18.886Z,51.65
2022-08-18T12:22:19.638Z,52.04
2022-08-18T12:23:19.267Z,52.07
2022-08-18T12:24:18.849Z,52.36
2022-08-18T12:25:25.477Z,51.70
2022-08-18T12:26:37.968Z,52.49
2022-08-18T12:27:21.577Z,52.59
2022-08-18T12:28:18.809Z,52.78
2022-08-18T12:29:18.797Z,53.01
2022-08-18T12:30:18.778Z,53.11
2022-08-18T12:31:18.829Z,53.43
2022-08-18T12:32:56.367Z,53.63
2022-08-18T12:33:25.475Z,53.63
2022-08-18T12:34:25.108Z,53.83
2022-08-18T12:35:22.082Z,53.92
2022-08-18T12:36:19.024Z,54.02
2022-08-18T12:37:57.057Z,53.43
2022-08-18T12:38:20.649Z,53.53
2022-08-18T12:39:18.688Z,53.83
2022-08-18T12:40:18.761Z,53.63
2022-08-18T12:41:23.522Z,53.53
2022-08-18T12:42:19.909Z,53.11
2022-08-18T12:43:18.648Z,53.01
2022-08-18T12:44:18.628Z,52.71
2022-08-18T12:45:18.660Z,53.01
2022-08-18T12:46:18.629Z,53.31
2022-08-18T12:47:18.609Z,53.20
2022-08-18T12:48:18.719Z,53.31
2022-08-18T12:49:18.578Z,53.60
2022-08-18T12:50:18.559Z,53.60
2022-08-18T12:51:18.605Z,53.50
2022-08-18T12:52:19.659Z,53.31
2022-08-18T12:53:18.553Z,53.20
2022-08-18T12:54:20.406Z,53.31
2022-08-18T12:55:22.089Z,53.08
2022-08-18T12:56:19.813Z,52.98
2022-08-18T12:57:27.695Z,53.08
2022-08-18T12:58:19.839Z,53.38
2022-08-18T12:59:18.474Z,53.08
2022-08-18T13:00:18.860Z,53.08
2022-08-18T13:01:19.194Z,53.08
2022-08-18T13:02:18.424Z,53.08
2022-08-18T13:03:18.447Z,52.49
2022-08-18T13:04:18.596Z,52.29
2022-08-18T13:05:18.410Z,52.26
2022-08-18T13:06:19.392Z,52.39
2022-08-18T13:07:19.051Z,51.99
2022-08-18T13:08:30.799Z,52.17
2022-08-18T13:09:34.247Z,52.26
2022-08-18T13:10:21.752Z,52.14
2022-08-18T13:11:23.533Z,52.14